createdAt,value
2023-04-10T00:01:16.266Z,18.82
2023-04-10T00:03:41.972Z,18.82
2023-04-10T00:06:07.718Z,18.82
2023-04-10T00:08:33.381Z,18.82
2023-04-10T00:10:59.038Z,18.82
2023-04-10T00:13:24.749Z,18.82
2023-04-10T00:15:50.379Z,18.82
2023-04-10T00:18:16.087Z,18.82
2023-04-10T00:20:42.813Z,18.81
2023-04-10T00:23:08.482Z,18.82
2023-04-10T00:25:34.217Z,18.82
2023-04-10T00:27:59.909Z,18.82
2023-04-10T00:30:25.642Z,18.83
2023-04-10T00:32:51.363Z,18.82
2023-04-10T00:35:17.052Z,18.82
2023-04-10T00:37:42.714Z,18.80
2023-04-10T00:40:08.603Z,18.82
2023-04-10T00:42:34.250Z,18.82
2023-04-10T00:44:59.918Z,18.82
2023-04-10T00:47:26.304Z,18.83
2023-04-10T00:49:52.617Z,18.82
2023-04-10T00:52:18.489Z,18.82
2023-04-10T00:54:44.121Z,18.82
2023-04-10T00:57:10.310Z,18.82
2023-04-10T00:59:36.037Z,18.83
2023-04-10T01:02:02.449Z,18.82
2023-04-10T01:04:30.220Z,18.83
2023-04-10T01:06:59.785Z,18.83
2023-04-10T01:09:48.148Z,18.83
2023-04-10T01:12:30.140Z,18.83
2023-04-10T01:15:13.596Z,18.81
2023-04-10T01:17:45.438Z,18.83
2023-04-10T01:20:19.909Z,18.82
2023-04-10T01:23:11.579Z,18.82
2023-04-10T01:25:43.021Z,18.82
2023-04-10T01:28:29.993Z,18.82
2023-04-10T01:30:57.676Z,18.82
2023-04-10T01:33:35.607Z,18.83
2023-04-10T01:36:05.138Z,18.81
2023-04-10T01:38:31.051Z,18.82
2023-04-10T01:40:57.390Z,18.83
2023-04-10T01:43:25.553Z,18.83
2023-04-10T01:45:52.175Z,18.82
2023-04-10T01:48:18.301Z,18.81
2023-04-10T01:50:44.955Z,18.82
2023-04-10T01:53:10.676Z,18.83
2023-04-10T01:55:37.321Z,18.83
2023-04-10T01:58:04.076Z,18.82
2023-04-10T02:00:30.165Z,18.83
2023-04-10T02:02:57.744Z,18.83
2023-04-10T02:05:27.982Z,18.81
2023-04-10T02:08:05.075Z,18.83
2023-04-10T02:10:37.209Z,18.83
2023-04-10T02:13:06.847Z,18.82
2023-04-10T02:15:33.981Z,18.83
2023-04-10T02:18:00.834Z,18.82
2023-04-10T02:20:26.604Z,18.82
2023-04-10T02:22:52.851Z,18.83
2023-04-10T02:25:18.525Z,18.82
2023-04-10T02:27:44.173Z,18.83
2023-04-10T02:30:10.591Z,18.82
2023-04-10T02:32:36.452Z,18.83
2023-04-10T02:35:02.403Z,18.83
2023-04-10T02:37:28.497Z,18.82
2023-04-10T02:39:54.450Z,18.82
2023-04-10T02:42:20.096Z,18.83
2023-04-10T02:44:46.828Z,18.84
2023-04-10T02:47:12.493Z,18.82
2023-04-10T02:49:38.201Z,18.83
2023-04-10T02:52:03.900Z,18.83
2023-04-10T02:54:29.586Z,18.82
2023-04-10T02:56:56.748Z,18.82
2023-04-10T02:59:22.420Z,18.83
2023-04-10T03:01:51.497Z,18.83
2023-04-10T03:04:18.510Z,18.83
2023-04-10T03:06:44.185Z,18.82
2023-04-10T03:09:09.828Z,18.83
2023-04-10T03:11:35.453Z,18.83
2023-04-10T03:14:01.121Z,18.83
2023-04-10T03:16:26.837Z,18.83
2023-04-10T03:18:53.058Z,18.83
2023-04-10T03:21:18.814Z,18.82
2023-04-10T03:23:44.470Z,18.83
2023-04-10T03:26:10.115Z,18.83
2023-04-10T03:28:35.969Z,18.83
2023-04-10T03:31:03.091Z,18.83
2023-04-10T03:33:29.152Z,18.83
2023-04-10T03:35:56.422Z,18.83
2023-04-10T03:38:22.211Z,18.83
2023-04-10T03:40:47.854Z,18.83
2023-04-10T03:43:13.518Z,18.83
2023-04-10T03:45:39.157Z,18.84
2023-04-10T03:48:05.137Z,18.83
2023-04-10T03:50:30.992Z,18.84
2023-04-10T03:52:56.658Z,18.82
2023-04-10T03:55:22.311Z,18.83
2023-04-10T03:57:48.451Z,18.84
2023-04-10T04:00:15.363Z,18.83
2023-04-10T04:02:41.300Z,18.84
2023-04-10T04:05:07.409Z,18.83
2023-04-10T04:07:33.165Z,18.83
2023-04-10T04:09:59.738Z,18.84
2023-04-10T04:12:25.771Z,18.84
2023-04-10T04:14:51.517Z,18.84
2023-04-10T04:17:17.266Z,18.83
2023-04-10T04:19:42.932Z,18.84
2023-04-10T04:22:08.829Z,18.83
2023-04-10T04:24:34.480Z,18.83
2023-04-10T04:27:00.528Z,18.84
2023-04-10T04:29:26.170Z,18.83
2023-04-10T04:31:51.867Z,18.84
2023-04-10T04:34:17.562Z,18.83
2023-04-10T04:36:43.301Z,18.83
2023-04-10T04:39:08.933Z,18.83
2023-04-10T04:41:34.586Z,18.84
2023-04-10T04:44:01.586Z,18.83
2023-04-10T04:46:27.827Z,18.84
2023-04-10T04:48:53.628Z,18.84
2023-04-10T04:51:19.264Z,18.83
2023-04-10T04:53:45.009Z,18.84
2023-04-10T04:56:10.690Z,18.84
2023-04-10T04:58:36.397Z,18.83
2023-04-10T05:01:02.131Z,18.84
2023-04-10T05:03:28.032Z,18.83
2023-04-10T05:05:54.659Z,18.83
2023-04-10T05:08:20.528Z,18.83
2023-04-10T05:10:46.190Z,18.83
2023-04-10T05:13:12.110Z,18.83
2023-04-10T05:15:38.446Z,18.82
2023-04-10T05:18:04.485Z,18.84
2023-04-10T05:20:30.465Z,18.83
2023-04-10T05:22:57.731Z,18.84
2023-04-10T05:25:23.459Z,18.84
2023-04-10T05:27:49.118Z,18.84
2023-04-10T05:30:14.837Z,18.84
2023-04-10T05:32:40.617Z,18.84
2023-04-10T05:35:06.807Z,18.83
2023-04-10T05:37:32.465Z,18.83
2023-04-10T05:39:58.881Z,18.83
2023-04-10T05:42:24.526Z,18.83
2023-04-10T05:44:51.520Z,18.83
2023-04-10T05:47:17.163Z,18.84
2023-04-10T05:49:42.856Z,18.83
2023-04-10T05:52:08.657Z,18.84
2023-04-10T05:54:34.421Z,18.84
2023-04-10T05:57:00.907Z,18.84
2023-04-10T05:59:26.778Z,18.84
2023-04-10T06:01:52.501Z,18.85
2023-04-10T06:04:18.439Z,18.83
2023-04-10T06:06:44.216Z,18.84
2023-04-10T06:09:09.858Z,18.84
2023-04-10T06:11:35.839Z,18.83
2023-04-10T06:14:01.506Z,18.82
2023-04-10T06:16:27.250Z,18.84
2023-04-10T06:18:53.626Z,18.85
2023-04-10T06:21:19.747Z,18.84
2023-04-10T06:23:45.567Z,18.84
2023-04-10T06:26:11.335Z,18.84
2023-04-10T06:28:37.134Z,18.85
2023-04-10T06:31:03.556Z,18.84
2023-04-10T06:33:29.514Z,18.84
2023-04-10T06:35:55.278Z,18.84
2023-04-10T06:38:20.956Z,18.83
2023-04-10T06:40:46.655Z,18.84
2023-04-10T06:43:12.294Z,18.83
2023-04-10T06:45:38.051Z,18.84
2023-04-10T06:48:04.420Z,18.84
2023-04-10T06:50:32.863Z,18.84
2023-04-10T06:52:59.316Z,18.83
2023-04-10T06:55:26.076Z,18.84
2023-04-10T06:57:51.969Z,18.84
2023-04-10T07:00:18.325Z,18.84
2023-04-10T07:02:44.051Z,18.85
2023-04-10T07:05:09.771Z,18.84
2023-04-10T07:07:35.419Z,18.84
2023-04-10T07:10:01.050Z,18.84
2023-04-10T07:12:26.722Z,18.85
2023-04-10T07:14:52.369Z,18.84
2023-04-10T07:17:18.057Z,18.85
2023-04-10T07:19:43.688Z,18.84
2023-04-10T07:22:09.337Z,18.85
2023-04-10T07:24:34.973Z,18.84
2023-04-10T07:27:01.093Z,18.85
2023-04-10T07:29:26.773Z,18.85
2023-04-10T07:31:52.452Z,18.84
2023-04-10T07:34:18.168Z,18.85
2023-04-10T07:36:45.899Z,18.84
2023-04-10T07:39:11.924Z,18.84
2023-04-10T07:41:37.679Z,18.84
2023-04-10T07:44:03.471Z,18.85
2023-04-10T07:46:29.116Z,18.84
2023-04-10T07:48:55.103Z,18.85
2023-04-10T07:51:21.460Z,18.84
2023-04-10T07:53:47.160Z,18.85
2023-04-10T07:56:17.124Z,18.85
2023-04-10T07:58:42.775Z,18.84
2023-04-10T08:01:08.437Z,18.84
2023-04-10T08:03:39.960Z,18.84
2023-04-10T08:06:08.309Z,18.84
2023-04-10T08:08:38.549Z,18.84
2023-04-10T08:11:07.394Z,18.84
2023-04-10T08:13:33.131Z,18.84
2023-04-10T08:15:59.129Z,18.85
2023-04-10T08:18:24.853Z,18.84
2023-04-10T08:20:50.503Z,18.84
2023-04-10T08:23:20.547Z,18.84
2023-04-10T08:25:46.764Z,18.84
2023-04-10T08:28:12.404Z,18.85
2023-04-10T08:30:38.110Z,18.84
2023-04-10T08:33:03.841Z,18.84
2023-04-10T08:35:29.520Z,18.84
2023-04-10T08:38:11.669Z,18.83
2023-04-10T08:40:39.566Z,18.84
2023-04-10T08:43:05.232Z,18.83
2023-04-10T08:45:30.879Z,18.84
2023-04-10T08:47:58.857Z,18.84
2023-04-10T08:50:24.599Z,18.84
2023-04-10T08:52:52.061Z,18.84
2023-04-10T08:55:17.855Z,18.84
2023-04-10T08:57:50.809Z,18.85
2023-04-10T09:00:23.080Z,18.84
2023-04-10T09:02:54.328Z,18.84
2023-04-10T09:05:20.288Z,18.84
2023-04-10T09:07:45.925Z,18.84
2023-04-10T09:10:11.591Z,18.84
2023-04-10T09:12:45.560Z,18.84
2023-04-10T09:15:11.320Z,18.85
2023-04-10T09:17:37.175Z,18.85
2023-04-10T09:20:19.928Z,18.84
2023-04-10T09:22:45.614Z,18.85
2023-04-10T09:25:28.471Z,18.84
2023-04-10T09:28:03.661Z,18.84
2023-04-10T09:30:44.401Z,18.84
2023-04-10T09:33:27.715Z,18.85
2023-04-10T09:35:53.772Z,18.85
2023-04-10T09:38:20.917Z,18.85
2023-04-10T09:40:47.628Z,18.84
2023-04-10T09:43:28.292Z,18.84
2023-04-10T09:45:56.659Z,18.84
2023-04-10T09:48:23.548Z,18.85
2023-04-10T09:50:49.617Z,18.84
2023-04-10T09:53:18.488Z,18.84
2023-04-10T09:55:45.173Z,18.85
2023-04-10T09:58:11.500Z,18.85
2023-04-10T10:00:42.914Z,18.85
2023-04-10T10:03:12.270Z,18.85
2023-04-10T10:05:40.256Z,18.85
2023-04-10T10:08:07.801Z,18.84
2023-04-10T10:10:33.602Z,18.84
2023-04-10T10:13:01.144Z,18.84
2023-04-10T10:15:36.473Z,18.86
2023-04-10T10:18:08.365Z,18.85
2023-04-10T10:20:35.429Z,18.85
2023-04-10T10:23:03.408Z,18.85
2023-04-10T10:25:30.616Z,18.85
2023-04-10T10:27:59.743Z,18.85
2023-04-10T10:30:30.039Z,18.84
2023-04-10T10:32:58.092Z,18.85
2023-04-10T10:35:27.940Z,18.85
2023-04-10T10:37:55.613Z,18.85
2023-04-10T10:40:26.024Z,18.86
2023-04-10T10:45:33.809Z,18.88
2023-04-10T10:47:59.821Z,18.88
2023-04-10T10:51:01.244Z,18.87
2023-04-10T10:53:38.742Z,18.86
2023-04-10T10:58:57.869Z,18.85
2023-04-10T11:01:23.884Z,18.85
2023-04-10T11:03:50.051Z,18.85
2023-04-10T11:06:18.557Z,18.85
2023-04-10T11:08:46.132Z,18.85
2023-04-10T11:14:01.372Z,18.84
2023-04-10T11:19:13.959Z,18.85
2023-04-10T11:22:03.211Z,18.85
2023-04-10T11:24:29.629Z,18.84
2023-04-10T11:26:55.693Z,18.84
2023-04-10T11:29:32.635Z,18.85
2023-04-10T11:32:00.215Z,18.85
2023-04-10T11:34:26.740Z,18.85
2023-04-10T11:36:52.812Z,18.85
2023-04-10T11:39:19.553Z,18.85
2023-04-10T11:41:48.122Z,18.85
2023-04-10T11:44:16.087Z,18.85
2023-04-10T11:46:46.028Z,18.85
2023-04-10T11:49:11.776Z,18.85
2023-04-10T11:51:38.713Z,18.85
2023-04-10T11:54:13.690Z,18.84
2023-04-10T11:56:41.543Z,18.86
2023-04-10T11:59:09.951Z,18.85
2023-04-10T12:01:36.027Z,18.85
2023-04-10T12:04:02.129Z,18.85
2023-04-10T12:06:28.250Z,18.85
2023-04-10T12:08:54.277Z,18.85
2023-04-10T12:11:22.206Z,18.85
2023-04-10T12:13:51.469Z,18.85
2023-04-10T12:16:17.375Z,18.86
2023-04-10T12:18:43.986Z,18.85
2023-04-10T12:21:09.839Z,18.85
2023-04-10T12:23:37.698Z,18.86
2023-04-10T12:26:18.401Z,18.85
2023-04-10T12:28:53.662Z,18.85
2023-04-10T12:31:27.978Z,18.85
2023-04-10T12:33:56.917Z,18.86
2023-04-10T12:36:28.373Z,18.86
2023-04-10T12:38:54.464Z,18.85
2023-04-10T12:41:23.071Z,18.86
2023-04-10T12:43:48.838Z,18.85
2023-04-10T12:46:24.078Z,18.86
2023-04-10T12:48:49.932Z,18.85
2023-04-10T12:51:15.579Z,18.85
2023-04-10T12:53:43.414Z,18.86
2023-04-10T12:56:09.065Z,18.85
2023-04-10T12:58:34.772Z,18.85
2023-04-10T13:01:05.432Z,18.85
2023-04-10T13:03:32.994Z,18.86
2023-04-10T13:05:58.794Z,18.86
2023-04-10T13:08:25.320Z,18.86
2023-04-10T13:10:51.019Z,18.85
2023-04-10T13:13:17.017Z,18.86
2023-04-10T13:15:43.091Z,18.86
2023-04-10T13:18:10.065Z,18.85
2023-04-10T13:20:37.590Z,18.86
2023-04-10T13:23:03.481Z,18.86
2023-04-10T13:25:33.438Z,18.85
2023-04-10T13:28:00.322Z,18.85
2023-04-10T13:30:26.794Z,18.85
2023-04-10T13:32:52.492Z,18.86
2023-04-10T13:35:18.269Z,18.85
2023-04-10T13:37:45.195Z,18.85
2023-04-10T13:40:10.945Z,18.85
2023-04-10T13:42:39.344Z,18.86
2023-04-10T13:45:06.536Z,18.85
2023-04-10T13:47:32.204Z,18.86
2023-04-10T13:49:57.875Z,18.85
2023-04-10T13:52:23.522Z,18.87
2023-04-10T13:54:49.151Z,18.85
2023-04-10T13:57:14.793Z,18.85
2023-04-10T13:59:40.441Z,18.86
2023-04-10T14:02:06.556Z,18.86
2023-04-10T14:04:32.214Z,18.86
2023-04-10T14:06:59.637Z,18.85
2023-04-10T14:09:25.491Z,18.85
2023-04-10T14:11:51.154Z,18.86
2023-04-10T14:14:16.792Z,18.86
2023-04-10T14:16:42.470Z,18.86
2023-04-10T14:19:08.126Z,18.86
2023-04-10T14:21:33.771Z,18.85
2023-04-10T14:23:59.391Z,18.84
2023-04-10T14:26:25.347Z,18.85
2023-04-10T14:28:51.632Z,18.85
2023-04-10T14:31:17.473Z,18.86
2023-04-10T14:33:43.103Z,18.85
2023-04-10T14:36:09.188Z,18.85
2023-04-10T14:38:36.001Z,18.85
2023-04-10T14:41:02.365Z,18.86
2023-04-10T14:43:28.033Z,18.86
2023-04-10T14:45:53.673Z,18.86
2023-04-10T14:48:20.318Z,18.86
2023-04-10T14:50:48.507Z,18.86
2023-04-10T14:53:14.560Z,18.87
2023-04-10T14:55:40.253Z,18.86
2023-04-10T14:58:08.025Z,18.86
2023-04-10T15:00:34.339Z,18.86
2023-04-10T15:03:00.217Z,18.85
2023-04-10T15:05:26.582Z,18.87
2023-04-10T15:07:52.465Z,18.87
2023-04-10T15:10:18.139Z,18.86
2023-04-10T15:12:43.777Z,18.86
2023-04-10T15:15:09.865Z,18.87
2023-04-10T15:17:35.526Z,18.86
2023-04-10T15:20:01.230Z,18.86
2023-04-10T15:22:28.370Z,18.86
2023-04-10T15:24:54.055Z,18.86
2023-04-10T15:27:20.431Z,18.86
2023-04-10T15:29:46.119Z,18.86
2023-04-10T15:32:11.766Z,18.86
2023-04-10T15:34:37.456Z,18.86
2023-04-10T15:37:03.115Z,18.86
2023-04-10T15:39:30.083Z,18.86
2023-04-10T15:41:57.307Z,18.86
2023-04-10T15:44:23.358Z,18.87
2023-04-10T15:46:49.280Z,18.86
2023-04-10T15:49:23.171Z,18.86
2023-04-10T15:51:55.837Z,18.86
2023-04-10T15:54:21.487Z,18.86
2023-04-10T15:56:47.129Z,18.86
2023-04-10T15:59:12.759Z,18.86
2023-04-10T16:01:38.512Z,18.86
2023-04-10T16:04:04.313Z,18.86
2023-04-10T16:06:30.475Z,18.88
2023-04-10T16:08:56.133Z,18.87
2023-04-10T16:11:21.770Z,18.87
2023-04-10T16:13:47.406Z,18.86
2023-04-10T16:16:15.005Z,18.87
2023-04-10T16:18:40.807Z,18.87
2023-04-10T16:21:07.866Z,18.87
2023-04-10T16:23:33.505Z,18.87
2023-04-10T16:25:59.155Z,18.87
2023-04-10T16:28:25.264Z,18.87
2023-04-10T16:30:50.928Z,18.86
2023-04-10T16:33:16.596Z,18.87
2023-04-10T16:35:42.279Z,18.84
2023-04-10T16:38:07.933Z,18.87
2023-04-10T16:40:33.566Z,18.86
2023-04-10T16:43:00.281Z,18.87
2023-04-10T16:45:26.067Z,18.87
2023-04-10T16:47:51.929Z,18.85
2023-04-10T16:50:17.637Z,18.88
2023-04-10T16:52:43.274Z,18.86
2023-04-10T16:55:08.951Z,18.87
2023-04-10T16:57:34.725Z,18.87
2023-04-10T17:00:00.572Z,18.87
2023-04-10T17:02:27.617Z,18.87
2023-04-10T17:04:54.507Z,18.87
2023-04-10T17:07:20.352Z,18.87
2023-04-10T17:09:46.000Z,18.88
2023-04-10T17:12:11.694Z,18.88
2023-04-10T17:14:37.363Z,18.87
2023-04-10T17:17:03.327Z,18.88
2023-04-10T17:19:29.803Z,18.86
2023-04-10T17:21:55.497Z,18.86
2023-04-10T17:24:21.157Z,18.87
2023-04-10T17:26:46.833Z,18.87
2023-04-10T17:29:12.460Z,18.88
2023-04-10T17:31:38.145Z,18.88
2023-04-10T17:34:03.858Z,18.87
2023-04-10T17:36:31.305Z,18.87
2023-04-10T17:38:57.344Z,18.88
2023-04-10T17:41:23.204Z,18.86
2023-04-10T17:43:49.308Z,18.88
2023-04-10T17:46:15.300Z,18.87
2023-04-10T17:48:41.804Z,18.87
2023-04-10T17:51:07.770Z,18.87
2023-04-10T17:53:33.415Z,18.86
2023-04-10T17:55:59.083Z,18.88
2023-04-10T17:58:24.751Z,18.87
2023-04-10T18:00:50.599Z,18.88
2023-04-10T18:03:16.396Z,18.87
2023-04-10T18:05:42.089Z,18.87
2023-04-10T18:08:07.894Z,18.88
2023-04-10T18:10:34.294Z,18.86
2023-04-10T18:12:59.986Z,18.87
2023-04-10T18:15:26.262Z,18.88
2023-04-10T18:17:52.096Z,18.87
2023-04-10T18:20:18.502Z,18.88
2023-04-10T18:22:46.171Z,18.88
2023-04-10T18:25:11.870Z,18.87
2023-04-10T18:27:42.308Z,18.87
2023-04-10T18:30:08.575Z,18.87
2023-04-10T18:32:35.621Z,18.88
2023-04-10T18:35:02.896Z,18.87
2023-04-10T18:37:28.966Z,18.87
2023-04-10T18:39:56.945Z,18.87
2023-04-10T18:42:24.611Z,18.88
2023-04-10T18:44:50.603Z,18.87
2023-04-10T18:47:16.255Z,18.88
2023-04-10T18:49:41.890Z,18.88
2023-04-10T18:52:07.580Z,18.87
2023-04-10T18:54:33.661Z,18.88
2023-04-10T18:56:59.336Z,18.87
2023-04-10T18:59:26.101Z,18.88
2023-04-10T19:01:51.869Z,18.87
2023-04-10T19:04:17.726Z,18.87
2023-04-10T19:06:45.303Z,18.88
2023-04-10T19:09:12.604Z,18.88
2023-04-10T19:11:38.809Z,18.88
2023-04-10T19:14:05.403Z,18.87
2023-04-10T19:19:02.332Z,18.87
2023-04-10T19:21:28.052Z,18.88
2023-04-10T19:23:54.095Z,18.88
2023-04-10T19:26:19.826Z,18.86
2023-04-10T19:28:45.936Z,18.87
2023-04-10T19:31:11.965Z,18.87
2023-04-10T19:33:37.714Z,18.87
2023-04-10T19:36:03.589Z,18.87
2023-04-10T19:38:31.086Z,18.87
2023-04-10T19:40:56.754Z,18.87
2023-04-10T19:43:22.397Z,18.87
2023-04-10T19:45:48.058Z,18.87
2023-04-10T19:48:15.099Z,18.87
2023-04-10T19:50:40.954Z,18.86
2023-04-10T19:53:06.644Z,18.86
2023-04-10T19:55:32.343Z,18.87
2023-04-10T19:57:57.980Z,18.87
2023-04-10T20:00:23.685Z,18.87
2023-04-10T20:02:49.598Z,18.86
2023-04-10T20:05:15.504Z,18.87
2023-04-10T20:07:41.202Z,18.87
2023-04-10T20:10:07.440Z,18.86
2023-04-10T20:12:33.076Z,18.87
2023-04-10T20:14:59.441Z,18.87
2023-04-10T20:17:25.118Z,18.87
2023-04-10T20:19:50.789Z,18.87
2023-04-10T20:22:16.439Z,18.87
2023-04-10T20:24:42.094Z,18.87
2023-04-10T20:27:07.737Z,18.86
2023-04-10T20:29:33.384Z,18.87
2023-04-10T20:31:59.070Z,18.86
2023-04-10T20:34:24.726Z,18.87
2023-04-10T20:36:50.431Z,18.87
2023-04-10T20:39:16.228Z,18.87
2023-04-10T20:41:41.878Z,18.86
2023-04-10T20:44:07.604Z,18.86
2023-04-10T20:46:33.315Z,18.86
2023-04-10T20:48:58.965Z,18.86
2023-04-10T20:51:26.345Z,18.85
2023-04-10T20:53:52.331Z,18.88
2023-04-10T20:56:18.069Z,18.87
2023-04-10T20:58:43.860Z,18.87
2023-04-10T21:01:09.846Z,18.86
2023-04-10T21:03:35.687Z,18.86
2023-04-10T21:06:03.432Z,18.86
2023-04-10T21:08:29.146Z,18.86
2023-04-10T21:10:57.887Z,18.86
2023-04-10T21:13:23.552Z,18.85
2023-04-10T21:15:49.226Z,18.86
2023-04-10T21:18:14.960Z,18.86
2023-04-10T21:20:42.472Z,18.86
2023-04-10T21:23:08.152Z,18.86
2023-04-10T21:25:34.524Z,18.87
2023-04-10T21:28:00.928Z,18.86
2023-04-10T21:30:27.492Z,18.86
2023-04-10T21:32:53.247Z,18.86
2023-04-10T21:35:18.970Z,18.85
2023-04-10T21:37:44.661Z,18.85
2023-04-10T21:40:10.467Z,18.86
2023-04-10T21:42:36.898Z,18.86
2023-04-10T21:45:02.883Z,18.87
2023-04-10T21:47:28.514Z,18.86
2023-04-10T21:49:54.156Z,18.85
2023-04-10T21:52:19.808Z,18.86
2023-04-10T21:54:45.457Z,18.85
2023-04-10T21:57:11.096Z,18.85
2023-04-10T21:59:36.955Z,18.86
2023-04-10T22:02:02.710Z,18.85
2023-04-10T22:04:28.401Z,18.85
2023-04-10T22:06:54.046Z,18.86
2023-04-10T22:09:20.717Z,18.85
2023-04-10T22:11:46.372Z,18.85
2023-04-10T22:14:18.045Z,18.85
2023-04-10T22:16:45.190Z,18.85
2023-04-10T22:19:10.847Z,18.84
2023-04-10T22:21:36.505Z,18.85
2023-04-10T22:24:02.152Z,18.84
2023-04-10T22:26:27.803Z,18.84
2023-04-10T22:28:53.604Z,18.86
2023-04-10T22:31:19.516Z,18.85
2023-04-10T22:33:45.275Z,18.86
2023-04-10T22:36:11.248Z,18.86
2023-04-10T22:38:37.108Z,18.85
2023-04-10T22:41:03.316Z,18.85
2023-04-10T22:43:28.956Z,18.85
2023-04-10T22:45:54.702Z,18.86
2023-04-10T22:48:20.441Z,18.86
2023-04-10T22:50:46.108Z,18.85
2023-04-10T22:53:11.768Z,18.86
2023-04-10T22:55:38.319Z,18.85
2023-04-10T22:58:04.273Z,18.85
2023-04-10T23:00:29.960Z,18.86
2023-04-10T23:02:55.672Z,18.85
2023-04-10T23:05:21.420Z,18.85
2023-04-10T23:07:47.059Z,18.85
2023-04-10T23:10:12.708Z,18.85
2023-04-10T23:12:38.440Z,18.84
2023-04-10T23:15:05.546Z,18.85
2023-04-10T23:17:31.191Z,18.85
2023-04-10T23:19:56.888Z,18.85
2023-04-10T23:22:22.578Z,18.85
2023-04-10T23:24:52.941Z,18.85
2023-04-10T23:27:18.568Z,18.84
2023-04-10T23:29:44.225Z,18.85
2023-04-10T23:32:09.877Z,18.85
2023-04-10T23:34:35.528Z,18.85
2023-04-10T23:37:01.232Z,18.84
2023-04-10T23:39:26.864Z,18.84
2023-04-10T23:41:52.718Z,18.84
2023-04-10T23:44:18.606Z,18.84
2023-04-10T23:46:44.417Z,18.84
2023-04-10T23:49:10.113Z,18.84
2023-04-10T23:51:35.770Z,18.84
2023-04-10T23:54:01.394Z,18.85
2023-04-10T23:56:28.426Z,18.84
2023-04-10T23:58:55.410Z,18.85
